Time;durP1;ratioP1;P1;durP2;ratioP2;P2;SDS_P1;SDS_P2;PMS_P1;PMS_P2;Temp;Humidity;BMP_temperature;BMP_pressure;BME280_temperature;BME280_humidity;BME280_pressure;Samples;Min_cycle;Max_cycle;Signal;HPM_P1;HPM_P2
2022/04/02 00:00:39;;;;;;;12.52;4.45;;;0.20;99.90;;;;;;4690368;28;9999972;-65
2022/04/02 00:03:06;;;;;;;12.88;5.05;;;0.20;99.90;;;;;;5042689;28;20036;-65
2022/04/02 00:05:31;;;;;;;7.90;4.60;;;0.20;99.90;;;;;;5041619;28;20440;-65
2022/04/02 00:07:57;;;;;;;12.50;5.07;;;0.20;99.90;;;;;;5043629;28;20017;-65
2022/04/02 00:10:23;;;;;;;10.77;4.38;;;0.10;99.90;;;;;;5042939;28;20030;-65
2022/04/02 00:12:48;;;;;;;11.60;4.70;;;0.20;99.90;;;;;;5038567;28;20064;-65
2022/04/02 00:15:14;;;;;;;10.82;4.60;;;0.10;99.90;;;;;;5037950;28;20577;-65
2022/04/02 00:17:40;;;;;;;11.75;4.70;;;0.20;99.90;;;;;;5053404;28;20112;-65
2022/04/02 00:20:06;;;;;;;11.02;4.32;;;0.10;99.90;;;;;;5052826;28;20036;-65
2022/04/02 00:22:32;;;;;;;9.95;4.18;;;0.10;99.90;;;;;;5052523;28;20094;-65
2022/04/02 00:24:57;;;;;;;8.80;4.63;;;0.10;99.90;;;;;;5039462;28;20780;-66
2022/04/02 00:27:23;;;;;;;14.00;4.95;;;0.10;99.90;;;;;;5036135;28;20096;-65
2022/04/02 00:29:49;;;;;;;9.13;4.60;;;0.20;99.90;;;;;;5055235;28;20460;-66
2022/04/02 00:32:15;;;;;;;10.10;4.30;;;0.20;99.90;;;;;;5046385;28;20063;-65
2022/04/02 00:34:40;;;;;;;18.33;4.50;;;0.20;99.90;;;;;;5041169;28;20675;-65
2022/04/02 00:37:06;;;;;;;12.18;4.38;;;0.10;99.90;;;;;;5044671;28;20033;-66
2022/04/02 00:39:32;;;;;;;10.02;4.15;;;0.10;99.90;;;;;;5044841;28;20032;-66
2022/04/02 00:41:57;;;;;;;7.35;4.22;;;0.10;99.90;;;;;;5040875;28;20017;-66
2022/04/02 00:44:26;;;;;;;10.00;4.05;;;0.10;99.90;;;;;;5044453;28;20488;-66
2022/04/02 00:46:52;;;;;;;11.02;4.70;;;0.10;99.90;;;;;;5043154;28;20037;-66
2022/04/02 00:49:17;;;;;;;9.40;4.13;;;0.10;99.90;;;;;;5044005;28;20040;-66
2022/04/02 00:51:44;;;;;;;12.00;3.85;;;0.10;99.90;;;;;;5037669;28;20029;-66
2022/04/02 00:54:13;;;;;;;10.52;4.15;;;0.10;99.90;;;;;;5033897;28;20369;-66
2022/04/02 00:56:39;;;;;;;9.43;3.50;;;0.20;99.90;;;;;;5052397;28;20026;-66
2022/04/02 00:59:06;;;;;;;8.60;3.60;;;0.20;99.90;;;;;;5048758;28;20025;-65
2022/04/02 01:01:32;;;;;;;10.18;3.63;;;0.20;99.90;;;;;;5042321;28;20021;-66
2022/04/02 01:03:58;;;;;;;9.02;4.13;;;0.10;99.90;;;;;;5040010;28;20082;-65
2022/04/02 01:06:25;;;;;;;8.90;3.75;;;0.20;99.90;;;;;;5041725;28;20688;-66
2022/04/02 01:08:51;;;;;;;8.90;3.72;;;0.20;99.90;;;;;;5045356;28;20033;-65
2022/04/02 01:11:16;;;;;;;10.07;3.70;;;0.30;99.90;;;;;;5050008;28;20079;-65
2022/04/02 01:13:42;;;;;;;6.95;3.40;;;0.30;99.90;;;;;;5045252;28;20021;-65
2022/04/02 01:16:08;;;;;;;6.38;3.33;;;0.30;99.90;;;;;;5038632;28;20504;-65
2022/04/02 01:18:34;;;;;;;8.32;3.33;;;0.30;99.90;;;;;;5042695;28;20022;-65
2022/04/02 01:20:59;;;;;;;7.15;3.50;;;0.40;99.90;;;;;;5040781;28;20028;-65
2022/04/02 01:23:29;;;;;;;10.75;3.70;;;0.40;99.90;;;;;;5044201;28;20056;-65
2022/04/02 01:25:59;;;;;;;6.80;3.35;;;0.40;99.90;;;;;;5039140;28;20313;-65
2022/04/02 01:28:26;;;;;;;8.80;3.10;;;0.40;99.90;;;;;;5047615;28;20477;-65
2022/04/02 01:30:52;;;;;;;8.88;3.20;;;0.40;99.90;;;;;;5055232;28;20426;-65
2022/04/02 01:33:18;;;;;;;7.85;3.58;;;0.50;99.90;;;;;;5039424;28;20356;-65
2022/04/02 01:35:43;;;;;;;10.90;3.53;;;0.40;99.90;;;;;;5035681;28;20006;-65
2022/04/02 01:38:09;;;;;;;9.05;2.92;;;0.40;99.90;;;;;;5045508;28;20386;-65
2022/04/02 01:40:35;;;;;;;5.18;2.50;;;0.40;99.90;;;;;;5040276;28;20374;-66
2022/04/02 01:43:00;;;;;;;10.18;2.83;;;0.40;99.90;;;;;;5038037;28;20056;-65
2022/04/02 01:45:26;;;;;;;8.85;2.90;;;0.40;99.90;;;;;;5029058;28;20037;-66
2022/04/02 01:47:53;;;;;;;5.05;2.72;;;0.40;99.90;;;;;;5041283;28;20017;-65
2022/04/02 01:50:19;;;;;;;13.93;2.88;;;0.40;99.90;;;;;;5042742;28;20068;-65
2022/04/02 01:52:44;;;;;;;8.60;3.33;;;0.40;99.90;;;;;;5041514;28;20476;-65
2022/04/02 01:55:10;;;;;;;6.90;2.80;;;0.50;99.90;;;;;;5033446;28;20112;-66
2022/04/02 01:57:36;;;;;;;6.30;3.30;;;0.40;99.90;;;;;;5034078;28;20163;-65
2022/04/02 02:00:05;;;;;;;8.38;3.42;;;0.40;99.90;;;;;;5050170;28;20108;-66
2022/04/02 02:02:31;;;;;;;7.07;2.95;;;0.40;99.90;;;;;;5044748;28;20021;-65
2022/04/02 02:04:56;;;;;;;10.00;3.20;;;0.40;99.90;;;;;;5035927;28;20031;-66
2022/04/02 02:07:22;;;;;;;4.85;2.30;;;0.40;99.90;;;;;;5041253;28;20481;-65
2022/04/02 02:09:48;;;;;;;7.60;3.25;;;0.40;99.90;;;;;;5039281;28;20563;-65
2022/04/02 02:12:15;;;;;;;5.10;2.80;;;0.40;99.90;;;;;;5041004;28;20028;-66
2022/04/02 02:14:41;;;;;;;7.45;3.63;;;0.40;99.90;;;;;;5039202;28;20120;-65
2022/04/02 02:17:06;;;;;;;8.85;2.88;;;0.40;99.90;;;;;;5045143;28;20039;-66
2022/04/02 02:19:32;;;;;;;8.13;2.70;;;0.40;99.90;;;;;;5046989;28;20028;-66
2022/04/02 02:21:57;;;;;;;10.23;2.80;;;0.40;99.90;;;;;;5047032;28;20029;-65
2022/04/02 02:24:23;;;;;;;8.10;2.90;;;0.40;99.90;;;;;;5056455;28;20435;-65
2022/04/02 02:26:50;;;;;;;7.38;2.63;;;0.30;99.90;;;;;;5043530;28;20031;-65
2022/04/02 02:29:15;;;;;;;10.30;3.17;;;0.30;99.90;;;;;;5056687;28;20033;-65
2022/04/02 02:31:41;;;;;;;9.05;2.70;;;0.30;99.90;;;;;;5033733;28;20093;-65
2022/04/02 02:36:51;;;;;;;6.05;3.15;;;0.30;99.90;;;;;;5053032;28;20102;-65
2022/04/02 02:39:16;;;;;;;5.05;2.50;;;0.30;99.90;;;;;;5055323;28;20024;-65
2022/04/02 02:41:42;;;;;;;4.85;2.63;;;0.30;99.90;;;;;;5036786;28;20468;-65
2022/04/02 02:44:08;;;;;;;6.35;2.70;;;0.30;99.90;;;;;;5035773;28;20032;-65
2022/04/02 02:46:34;;;;;;;5.82;2.95;;;0.20;99.90;;;;;;5042797;28;20479;-65
2022/04/02 02:49:00;;;;;;;7.07;2.65;;;0.20;99.90;;;;;;5044461;28;20476;-65
2022/04/02 02:51:26;;;;;;;5.43;2.60;;;0.20;99.90;;;;;;5053463;28;20056;-65
2022/04/02 02:53:51;;;;;;;8.15;2.78;;;0.20;99.90;;;;;;5045399;28;20099;-65
2022/04/02 02:56:17;;;;;;;5.28;2.65;;;0.20;99.90;;;;;;5043875;28;20132;-65
2022/04/02 02:58:43;;;;;;;9.00;2.50;;;0.20;99.90;;;;;;5052843;28;20034;-66
2022/04/02 03:01:11;;;;;;;5.57;2.75;;;0.20;99.90;;;;;;5047242;28;20052;-65
2022/04/02 03:03:38;;;;;;;10.93;3.00;;;0.20;99.90;;;;;;5049086;28;20075;-65
2022/04/02 03:06:04;;;;;;;5.90;2.53;;;0.20;99.90;;;;;;5034253;28;20029;-65
2022/04/02 03:08:29;;;;;;;4.38;2.67;;;0.20;99.90;;;;;;5028363;28;20029;-65
2022/04/02 03:10:55;;;;;;;3.95;2.40;;;0.20;99.90;;;;;;5042390;28;20039;-65
2022/04/02 03:13:21;;;;;;;7.18;2.92;;;0.20;99.90;;;;;;5036871;28;20033;-65
2022/04/02 03:15:46;;;;;;;10.13;3.13;;;0.20;99.90;;;;;;5046699;28;20033;-66
2022/04/02 03:18:12;;;;;;;6.93;3.00;;;0.20;99.90;;;;;;5041320;28;20025;-66
2022/04/02 03:20:38;;;;;;;10.05;3.65;;;0.30;99.90;;;;;;5041105;28;20029;-65
2022/04/02 03:23:04;;;;;;;9.65;3.67;;;0.20;99.90;;;;;;5036389;28;20534;-65
2022/04/02 03:25:31;;;;;;;5.90;3.20;;;0.20;99.90;;;;;;5039866;28;20520;-66
2022/04/02 03:27:57;;;;;;;4.63;2.88;;;0.20;99.90;;;;;;5044628;28;20032;-66
2022/04/02 03:30:24;;;;;;;6.40;3.05;;;0.20;99.90;;;;;;5033800;28;20615;-65
2022/04/02 03:32:52;;;;;;;6.38;3.53;;;0.20;99.90;;;;;;5051094;28;20037;-66
2022/04/02 03:35:19;;;;;;;5.30;3.38;;;0.20;99.90;;;;;;5038997;28;20142;-66
2022/04/02 03:37:47;;;;;;;7.68;3.45;;;0.20;99.90;;;;;;5039706;28;20033;-65
2022/04/02 03:40:17;;;;;;;7.55;3.30;;;0.20;99.90;;;;;;5041226;28;20028;-65
2022/04/02 03:42:44;;;;;;;10.68;3.95;;;0.20;99.90;;;;;;5049381;28;20037;-65
2022/04/02 03:45:12;;;;;;;7.85;3.55;;;0.30;99.90;;;;;;5039041;28;20044;-65
2022/04/02 03:47:38;;;;;;;8.15;3.30;;;0.20;99.90;;;;;;5051156;28;20032;-65
2022/04/02 03:50:04;;;;;;;7.40;3.47;;;0.20;99.90;;;;;;5042825;28;20033;-65
2022/04/02 03:52:30;;;;;;;7.85;3.63;;;0.20;99.90;;;;;;5038888;28;20041;-65
2022/04/02 03:54:56;;;;;;;7.45;3.30;;;0.20;99.90;;;;;;5043937;28;20499;-65
2022/04/02 03:57:21;;;;;;;9.77;3.47;;;0.20;99.90;;;;;;5033967;28;20031;-65
2022/04/02 03:59:47;;;;;;;5.82;3.15;;;0.20;99.90;;;;;;5044225;28;20021;-65
2022/04/02 04:02:13;;;;;;;7.30;3.70;;;0.20;99.90;;;;;;5035799;28;20435;-65
2022/04/02 04:04:39;;;;;;;9.15;4.30;;;0.20;99.90;;;;;;5042577;28;20031;-65
2022/04/02 04:07:06;;;;;;;9.57;3.65;;;0.20;99.90;;;;;;5050198;28;20103;-65
2022/04/02 04:09:32;;;;;;;8.07;3.60;;;0.20;99.90;;;;;;5029654;28;20032;-65
2022/04/02 04:11:58;;;;;;;7.68;3.45;;;0.20;99.90;;;;;;5044484;28;20091;-66
2022/04/02 04:14:24;;;;;;;9.00;4.18;;;0.20;99.90;;;;;;5037456;28;20029;-66
2022/04/02 04:16:51;;;;;;;9.70;3.55;;;0.20;99.90;;;;;;5045735;28;20020;-66
2022/04/02 04:19:17;;;;;;;8.80;3.70;;;0.20;99.90;;;;;;5049756;28;20327;-66
2022/04/02 04:21:43;;;;;;;5.78;3.50;;;0.20;99.90;;;;;;5046416;28;20025;-65
2022/04/02 04:24:10;;;;;;;9.82;3.40;;;0.10;99.90;;;;;;5030254;28;20511;-66
2022/04/02 04:26:37;;;;;;;12.32;3.60;;;0.20;99.90;;;;;;5038378;28;20033;-66
2022/04/02 04:29:03;;;;;;;6.88;3.80;;;0.10;99.90;;;;;;5045983;28;20103;-66
2022/04/02 04:31:29;;;;;;;7.18;3.67;;;0.10;99.90;;;;;;5040606;28;20317;-65
2022/04/02 04:33:54;;;;;;;7.50;4.05;;;0.10;99.90;;;;;;5036876;28;20574;-66
2022/04/02 04:36:22;;;;;;;8.88;3.63;;;0.20;99.90;;;;;;5039018;28;20025;-66
2022/04/02 04:38:48;;;;;;;10.02;3.78;;;0.10;99.90;;;;;;5039273;28;20057;-66
2022/04/02 04:41:14;;;;;;;10.18;3.47;;;0.10;99.90;;;;;;5044660;28;20547;-66
2022/04/02 04:43:41;;;;;;;8.15;3.55;;;0.10;99.90;;;;;;5034367;28;20021;-66
2022/04/02 04:46:08;;;;;;;10.95;4.85;;;0.20;99.90;;;;;;5042411;28;20040;-66
2022/04/02 04:48:37;;;;;;;8.02;4.07;;;0.20;99.90;;;;;;5031584;28;20048;-66
2022/04/02 04:51:04;;;;;;;8.98;4.07;;;0.10;99.90;;;;;;5035044;28;20650;-65
2022/04/02 04:53:29;;;;;;;7.80;3.97;;;0.10;99.90;;;;;;5043426;28;20087;-65
2022/04/02 04:55:55;;;;;;;8.77;4.18;;;0.10;99.90;;;;;;5049230;28;20020;-65
2022/04/02 04:58:21;;;;;;;10.82;4.38;;;0.10;99.90;;;;;;5036218;28;20017;-65
2022/04/02 05:00:47;;;;;;;6.93;4.25;;;0.10;99.90;;;;;;5038570;28;20801;-65
2022/04/02 05:03:12;;;;;;;10.70;4.40;;;0.10;99.90;;;;;;5035022;28;20476;-65
2022/04/02 05:05:38;;;;;;;8.55;4.05;;;0.10;99.90;;;;;;5041134;28;20165;-65
2022/04/02 05:08:07;;;;;;;9.73;4.50;;;0.20;99.90;;;;;;5027139;28;20036;-65
2022/04/02 05:10:34;;;;;;;10.45;4.72;;;0.20;99.90;;;;;;5043188;28;20025;-65
2022/04/02 05:13:00;;;;;;;11.75;5.13;;;0.20;99.90;;;;;;5041670;28;20032;-66
2022/04/02 05:15:26;;;;;;;10.25;4.72;;;0.20;99.90;;;;;;5043814;28;20459;-65
2022/04/02 05:17:53;;;;;;;12.32;5.07;;;0.20;99.90;;;;;;5042654;28;20029;-66
2022/04/02 05:20:18;;;;;;;9.32;4.45;;;0.20;99.90;;;;;;5039130;28;20086;-65
2022/04/02 05:22:44;;;;;;;14.30;4.53;;;0.20;99.90;;;;;;5042946;28;20116;-65
2022/04/02 05:25:14;;;;;;;11.98;4.72;;;0.20;99.90;;;;;;5060035;28;20094;-66
2022/04/02 05:27:40;;;;;;;10.32;3.92;;;0.20;99.90;;;;;;5051399;28;20095;-66
2022/04/02 05:30:06;;;;;;;8.85;4.03;;;0.30;99.90;;;;;;5049946;28;20049;-66
2022/04/02 05:32:32;;;;;;;5.85;3.30;;;0.30;99.90;;;;;;5037423;28;20179;-66
2022/04/02 05:34:58;;;;;;;10.32;4.10;;;0.30;99.90;;;;;;5049693;28;20290;-66
2022/04/02 05:37:24;;;;;;;6.43;3.65;;;0.30;99.90;;;;;;5038371;28;20029;-65
2022/04/02 05:39:50;;;;;;;8.05;3.45;;;0.30;99.90;;;;;;5044281;28;20017;-66
2022/04/02 05:42:16;;;;;;;9.27;3.58;;;0.40;99.90;;;;;;5035990;28;20044;-65
2022/04/02 05:44:42;;;;;;;10.77;3.60;;;0.40;99.90;;;;;;5032892;28;20710;-66
2022/04/02 05:47:09;;;;;;;7.63;4.18;;;0.30;99.90;;;;;;5041277;28;20233;-65
2022/04/02 05:49:35;;;;;;;8.70;4.13;;;0.30;99.90;;;;;;5050484;28;20048;-65
2022/04/02 05:52:03;;;;;;;8.98;4.07;;;0.30;99.90;;;;;;5032468;28;20029;-66
2022/04/02 05:54:29;;;;;;;10.93;4.60;;;0.40;99.90;;;;;;5032142;28;20494;-66
2022/04/02 05:56:55;;;;;;;10.02;4.78;;;0.40;99.90;;;;;;5041481;28;20044;-65
2022/04/02 05:59:21;;;;;;;8.82;4.45;;;0.40;99.90;;;;;;5040452;28;20033;-66
2022/04/02 06:01:48;;;;;;;11.32;4.30;;;0.40;99.90;;;;;;5040892;28;20029;-65
2022/04/02 06:04:14;;;;;;;11.65;4.35;;;0.40;99.90;;;;;;5034830;28;20028;-65
2022/04/02 06:06:40;;;;;;;7.30;4.35;;;0.40;99.90;;;;;;5025975;28;20040;-65
2022/04/02 06:09:05;;;;;;;8.73;4.50;;;0.50;99.90;;;;;;5041044;28;20037;-65
2022/04/02 06:11:31;;;;;;;7.57;3.97;;;0.50;99.90;;;;;;5038738;28;20402;-66
2022/04/02 06:13:58;;;;;;;9.20;4.80;;;0.60;99.90;;;;;;5043029;28;20020;-66
2022/04/02 06:16:23;;;;;;;8.02;4.75;;;0.60;99.90;;;;;;5036423;28;20022;-66
2022/04/02 06:18:53;;;;;;;7.88;4.43;;;0.60;99.90;;;;;;5031239;28;20302;-66
2022/04/02 06:21:19;;;;;;;9.10;5.25;;;0.60;99.90;;;;;;5027252;28;20029;-66
2022/04/02 06:23:45;;;;;;;8.85;5.25;;;0.60;99.90;;;;;;5044963;28;20071;-65
2022/04/02 06:26:11;;;;;;;10.73;6.00;;;0.60;99.90;;;;;;5044312;28;20048;-65
2022/04/02 06:28:37;;;;;;;10.93;6.63;;;0.60;99.90;;;;;;5044402;28;20025;-65
2022/04/02 06:31:04;;;;;;;9.10;5.95;;;0.60;99.90;;;;;;5039586;28;20048;-65
2022/04/02 06:33:31;;;;;;;10.82;6.38;;;0.60;99.90;;;;;;5041461;28;20488;-65
2022/04/02 06:35:57;;;;;;;12.45;6.60;;;0.60;99.90;;;;;;5034414;28;20048;-65
2022/04/02 06:38:23;;;;;;;9.82;6.80;;;0.60;99.90;;;;;;5035300;28;20037;-66
2022/04/02 06:40:48;;;;;;;10.18;6.20;;;0.70;99.90;;;;;;5033487;28;20029;-66
2022/04/02 06:43:14;;;;;;;11.80;6.53;;;0.70;99.90;;;;;;5040124;28;20040;-65
2022/04/02 06:45:40;;;;;;;11.43;6.60;;;0.70;99.90;;;;;;5039414;28;20033;-66
2022/04/02 06:48:06;;;;;;;10.60;6.43;;;0.70;99.90;;;;;;5040300;28;20029;-66
2022/04/02 06:50:31;;;;;;;11.13;6.68;;;0.70;99.90;;;;;;5037883;28;20030;-66
2022/04/02 06:52:57;;;;;;;9.95;6.10;;;0.70;99.90;;;;;;5033788;28;20025;-66
2022/04/02 06:55:23;;;;;;;10.70;6.53;;;0.70;99.90;;;;;;5034971;28;20029;-65
2022/04/02 06:57:52;;;;;;;12.32;7.25;;;0.70;99.90;;;;;;5041224;28;20380;-66
2022/04/02 07:00:18;;;;;;;11.70;7.22;;;0.70;99.90;;;;;;5035765;28;20074;-66
2022/04/02 07:02:44;;;;;;;17.50;7.45;;;0.80;99.90;;;;;;5036480;28;20416;-66
2022/04/02 07:05:10;;;;;;;13.20;6.75;;;0.80;99.90;;;;;;5034868;28;20037;-66
2022/04/02 07:07:36;;;;;;;11.38;6.97;;;0.80;99.90;;;;;;5040253;28;20033;-66
2022/04/02 07:10:06;;;;;;;15.43;7.05;;;0.90;99.90;;;;;;5032536;28;20080;-66
2022/04/02 07:12:35;;;;;;;15.15;7.07;;;0.90;99.90;;;;;;5038662;28;20060;-65
2022/04/02 07:15:02;;;;;;;12.25;6.70;;;0.90;99.90;;;;;;5034801;28;20090;-66
2022/04/02 07:17:28;;;;;;;10.80;6.30;;;0.90;99.90;;;;;;5042917;28;20444;-66
2022/04/02 07:19:59;;;;;;;10.05;5.93;;;0.90;99.90;;;;;;5036989;28;20060;-66
2022/04/02 07:22:26;;;;;;;10.50;6.57;;;0.90;99.90;;;;;;5039705;28;20071;-65
2022/04/02 07:24:53;;;;;;;21.85;7.30;;;1.00;99.90;;;;;;5032582;28;20450;-65
2022/04/02 07:27:26;;;;;;;13.15;6.78;;;1.00;99.90;;;;;;5044899;28;20025;-67
2022/04/02 07:29:56;;;;;;;9.70;5.45;;;0.90;99.90;;;;;;5033758;28;20049;-66
2022/04/02 07:32:22;;;;;;;12.80;6.30;;;1.00;99.90;;;;;;5030359;28;20477;-67
2022/04/02 07:34:49;;;;;;;10.05;5.65;;;1.00;99.90;;;;;;5040439;28;20290;-67
2022/04/02 07:37:54;;;;;;;9.43;5.25;;;1.00;99.90;;;;;;5032195;28;20497;-67
2022/04/02 07:40:24;;;;;;;9.85;5.45;;;1.00;99.90;;;;;;5039201;28;20029;-68
2022/04/02 07:43:05;;;;;;;13.00;5.43;;;1.00;99.90;;;;;;5036292;28;20033;-68
2022/04/02 07:45:45;;;;;;;8.48;5.28;;;1.10;99.90;;;;;;5036751;28;20033;-67
2022/04/02 07:48:12;;;;;;;9.52;5.72;;;1.00;99.90;;;;;;5036294;28;20503;-68
2022/04/02 07:50:42;;;;;;;11.68;5.50;;;1.10;99.90;;;;;;5043057;28;20040;-67
2022/04/02 07:53:18;;;;;;;9.80;5.65;;;1.20;99.90;;;;;;5045108;28;20370;-67
2022/04/02 07:56:01;;;;;;;12.85;5.50;;;1.30;99.90;;;;;;5034284;28;20029;-67
2022/04/02 07:58:32;;;;;;;14.73;6.60;;;1.30;99.90;;;;;;5037344;28;20033;-67
2022/04/02 08:01:03;;;;;;;9.82;5.70;;;1.30;99.90;;;;;;5037778;28;20037;-66
2022/04/02 08:03:30;;;;;;;8.07;5.20;;;1.30;99.90;;;;;;5035787;28;20021;-67
2022/04/02 08:05:56;;;;;;;12.15;5.55;;;1.30;99.90;;;;;;5042135;28;20016;-67
2022/04/02 08:08:25;;;;;;;8.13;5.28;;;1.30;99.90;;;;;;5040449;28;20106;-67
2022/04/02 08:10:54;;;;;;;9.30;5.55;;;1.40;99.90;;;;;;5037699;28;20029;-67
2022/04/02 08:13:22;;;;;;;11.95;6.00;;;1.50;99.90;;;;;;5051579;28;20431;-67
2022/04/02 08:15:49;;;;;;;9.10;4.43;;;1.50;99.90;;;;;;5041446;28;20036;-67
2022/04/02 08:18:20;;;;;;;8.82;4.55;;;1.50;99.90;;;;;;5044364;28;20508;-67
2022/04/02 08:20:45;;;;;;;7.78;4.57;;;1.50;99.90;;;;;;5030414;28;20029;-66
2022/04/02 08:23:11;;;;;;;8.20;4.85;;;1.60;99.90;;;;;;5030358;28;20091;-67
2022/04/02 08:25:40;;;;;;;8.13;4.28;;;1.60;99.90;;;;;;5036850;28;20037;-67
2022/04/02 08:28:52;;;;;;;7.68;4.72;;;1.40;99.90;;;;;;5038023;28;20041;-67
2022/04/02 08:31:30;;;;;;;7.07;4.30;;;1.40;99.90;;;;;;5006668;28;20041;-67
2022/04/02 08:34:06;;;;;;;8.02;4.35;;;1.50;99.90;;;;;;5036983;28;20037;-66
2022/04/02 08:36:49;;;;;;;12.05;4.40;;;1.40;99.90;;;;;;5036232;28;20029;-66
2022/04/02 08:39:28;;;;;;;11.52;4.30;;;1.40;99.90;;;;;;5039557;28;20032;-66
2022/04/02 08:42:19;;;;;;;11.43;4.57;;;1.50;99.90;;;;;;5049487;28;20040;-66
2022/04/02 08:45:03;;;;;;;9.52;4.22;;;1.50;99.90;;;;;;5021715;28;20547;-66
2022/04/02 08:47:29;;;;;;;9.15;3.97;;;1.60;99.90;;;;;;5037337;28;20048;-67
2022/04/02 08:50:14;;;;;;;7.57;4.70;;;1.70;99.90;;;;;;5047646;28;20036;-66
2022/04/02 08:52:51;;;;;;;7.90;4.20;;;1.70;99.90;;;;;;5036220;28;20037;-66
2022/04/02 08:55:23;;;;;;;8.10;4.50;;;1.80;99.90;;;;;;5038826;28;20451;-66
2022/04/02 08:57:54;;;;;;;10.50;4.05;;;1.80;99.90;;;;;;5046181;28;20146;-66
2022/04/02 09:00:24;;;;;;;8.93;4.28;;;1.80;99.90;;;;;;5038927;28;20061;-66
2022/04/02 09:03:17;;;;;;;10.85;4.70;;;1.90;99.90;;;;;;5038617;28;20038;-67
2022/04/02 09:06:01;;;;;;;10.93;4.15;;;1.90;99.90;;;;;;5033830;28;20504;-66
2022/04/02 09:08:44;;;;;;;;;;;1.90;99.90;;;;;;5051009;28;20036;-66
2022/04/02 09:11:45;;;;;;;7.82;4.50;;;2.00;99.90;;;;;;5039808;28;19920;-66
2022/04/02 09:15:01;;;;;;;7.30;4.25;;;2.00;99.90;;;;;;5041748;28;20476;-66
2022/04/02 09:17:30;;;;;;;8.02;4.20;;;2.00;99.90;;;;;;5002384;28;20029;-66
2022/04/02 09:20:20;;;;;;;7.25;4.60;;;2.00;99.90;;;;;;5044748;28;20041;-66
2022/04/02 09:22:57;;;;;;;8.38;4.20;;;2.10;99.90;;;;;;5039852;28;20096;-66
2022/04/02 09:25:47;;;;;;;7.38;4.40;;;2.10;99.90;;;;;;5044014;28;20030;-66
2022/04/02 09:28:26;;;;;;;9.00;4.50;;;2.10;99.90;;;;;;5035345;28;20025;-67
2022/04/02 09:31:29;;;;;;;6.38;4.03;;;2.20;99.90;;;;;;5031696;28;20139;-67
2022/04/02 09:34:22;;;;;;;5.67;4.10;;;2.20;99.90;;;;;;5037447;28;20079;-67
2022/04/02 09:36:48;;;;;;;;;;;2.20;99.90;;;;;;5038465;28;20615;-67
2022/04/02 09:39:36;;;;;;;8.77;4.45;;;2.20;99.90;;;;;;5058486;28;19908;-67
2022/04/02 09:42:17;;;;;;;5.82;4.18;;;2.30;99.90;;;;;;5041246;28;20064;-67
2022/04/02 09:45:03;;;;;;;8.07;4.50;;;2.30;99.90;;;;;;5040124;28;21433;-68
2022/04/02 09:47:51;;;;;;;7.88;4.25;;;2.30;99.90;;;;;;5037610;28;20400;-66
2022/04/02 09:50:26;;;;;;;11.60;4.60;;;2.30;99.90;;;;;;5045683;28;20585;-65
2022/04/02 09:52:56;;;;;;;7.82;4.40;;;2.30;99.90;;;;;;5039106;28;20029;-65
2022/04/02 09:55:32;;;;;;;8.55;4.53;;;2.30;99.90;;;;;;5042130;28;20060;-66
2022/04/02 09:58:17;;;;;;;5.32;3.95;;;2.30;99.90;;;;;;5039549;28;20025;-65
2022/04/02 10:00:57;;;;;;;10.73;4.80;;;2.30;99.90;;;;;;5037790;28;20059;-66
2022/04/02 10:03:33;;;;;;;8.30;4.57;;;2.30;99.90;;;;;;5043288;28;20500;-65
2022/04/02 10:06:04;;;;;;;8.60;4.47;;;2.30;99.90;;;;;;5039722;28;20079;-66
2022/04/02 10:08:47;;;;;;;6.13;3.80;;;2.40;99.90;;;;;;5036772;28;20041;-65
2022/04/02 10:11:18;;;;;;;5.40;3.43;;;2.40;99.90;;;;;;5029487;28;20203;-66
2022/04/02 10:13:44;;;;;;;5.72;3.75;;;2.50;99.90;;;;;;5042506;28;20393;-66
2022/04/02 10:16:12;;;;;;;6.75;3.50;;;2.40;99.90;;;;;;5044597;28;20426;-67
2022/04/02 10:18:40;;;;;;;8.32;3.92;;;2.50;99.90;;;;;;5039754;28;20476;-65
2022/04/02 10:21:05;;;;;;;4.38;3.70;;;2.60;99.90;;;;;;5035020;28;20032;-66
2022/04/02 10:23:35;;;;;;;5.95;3.70;;;2.60;99.90;;;;;;5037209;28;20058;-65
2022/04/02 10:26:08;;;;;;;6.25;3.45;;;2.70;99.90;;;;;;5041029;28;20036;-65
2022/04/02 10:28:51;;;;;;;6.22;3.72;;;2.70;99.90;;;;;;5036874;28;20056;-66
2022/04/02 10:31:40;;;;;;;8.93;3.78;;;2.80;99.90;;;;;;5034708;28;20555;-65
2022/04/02 10:34:21;;;;;;;9.70;4.05;;;2.80;99.90;;;;;;5033316;28;20054;-65
2022/04/02 10:36:54;;;;;;;7.28;3.78;;;2.80;99.90;;;;;;5045240;28;20040;-65
2022/04/02 10:39:23;;;;;;;8.10;3.55;;;2.70;99.90;;;;;;5035022;28;20137;-66
2022/04/02 10:41:54;;;;;;;6.35;3.40;;;2.70;99.90;;;;;;5034590;28;20036;-66
2022/04/02 10:44:44;;;;;;;7.32;3.63;;;2.80;99.90;;;;;;5036306;28;20041;-66
2022/04/02 10:47:12;;;;;;;5.82;4.15;;;2.90;99.90;;;;;;5045763;28;20389;-66
2022/04/02 10:49:40;;;;;;;7.00;4.25;;;2.80;99.90;;;;;;5037241;28;20090;-66
2022/04/02 10:52:11;;;;;;;6.50;4.30;;;2.90;99.90;;;;;;5041274;28;20082;-66
2022/04/02 10:54:40;;;;;;;5.85;4.40;;;2.90;99.90;;;;;;5036325;28;20204;-66
2022/04/02 10:57:06;;;;;;;10.98;4.93;;;2.90;99.90;;;;;;5036870;28;20097;-67
2022/04/02 10:59:32;;;;;;;7.47;4.90;;;2.90;99.90;;;;;;5035015;28;20051;-67
2022/04/02 11:02:01;;;;;;;10.02;4.75;;;2.80;99.90;;;;;;5040009;28;20029;-67
2022/04/02 11:04:47;;;;;;;8.75;5.03;;;2.90;99.90;;;;;;5033572;28;20443;-69
2022/04/02 11:07:29;;;;;;;7.18;4.78;;;3.00;99.90;;;;;;5031579;28;20044;-69
2022/04/02 11:09:58;;;;;;;8.38;4.70;;;2.90;99.90;;;;;;5037903;28;20363;-69
2022/04/02 11:12:30;;;;;;;7.25;4.60;;;2.90;99.90;;;;;;5043833;28;20033;-69
2022/04/02 11:15:09;;;;;;;12.38;4.70;;;2.90;99.90;;;;;;5033456;28;20029;-69
2022/04/02 11:17:37;;;;;;;6.80;4.97;;;2.90;99.90;;;;;;5035851;28;20036;-67
2022/04/02 11:20:12;;;;;;;8.15;5.50;;;2.90;99.90;;;;;;5037668;28;20501;-67
2022/04/02 11:22:46;;;;;;;9.18;5.20;;;2.90;99.90;;;;;;5041445;28;20115;-68
2022/04/02 11:25:31;;;;;;;12.90;5.57;;;3.00;99.90;;;;;;5041627;28;20155;-67
2022/04/02 11:28:14;;;;;;;8.68;5.55;;;3.10;99.90;;;;;;5036058;28;20483;-68
2022/04/02 11:30:51;;;;;;;7.53;5.97;;;3.20;99.90;;;;;;5038520;28;20037;-67
2022/04/02 11:33:22;;;;;;;10.15;5.82;;;3.20;99.90;;;;;;5049839;28;20029;-68
2022/04/02 11:35:52;;;;;;;7.82;5.90;;;3.20;99.90;;;;;;5027629;28;20040;-68
2022/04/02 11:38:21;;;;;;;9.93;5.72;;;3.30;99.90;;;;;;4690105;28;9999589;-70
2022/04/02 11:40:56;;;;;;;8.10;5.57;;;3.30;99.90;;;;;;5039737;28;20126;-69
2022/04/02 11:43:39;;;;;;;9.57;5.97;;;3.40;99.90;;;;;;5040112;28;20048;-68
2022/04/02 11:46:06;;;;;;;;;;;3.50;99.90;;;;;;5036780;28;20398;-67
2022/04/02 11:48:34;;;;;;;11.05;5.78;;;3.30;99.90;;;;;;5030231;28;20357;-68
2022/04/02 11:51:14;;;;;;;7.35;5.38;;;3.30;99.90;;;;;;5040573;28;20103;-67
2022/04/02 11:53:40;;;;;;;9.10;5.35;;;3.30;99.90;;;;;;5034369;28;20039;-69
2022/04/02 11:56:32;;;;;;;6.90;5.05;;;3.30;99.90;;;;;;5034938;28;20040;-68
2022/04/02 11:59:00;;;;;;;8.27;5.45;;;3.40;99.90;;;;;;5032922;28;20293;-69
2022/04/02 12:01:40;;;;;;;7.93;5.45;;;3.40;99.90;;;;;;5038992;28;20056;-68
2022/04/02 12:04:12;;;;;;;9.88;5.57;;;3.40;99.90;;;;;;5039269;28;20141;-68
2022/04/02 12:06:38;;;;;;;7.28;5.13;;;3.30;99.90;;;;;;5027610;28;20523;-69
2022/04/02 12:09:12;;;;;;;10.85;5.63;;;3.40;99.90;;;;;;5029037;28;20268;-67
2022/04/02 12:11:41;;;;;;;9.43;5.30;;;3.20;99.90;;;;;;5034376;28;20025;-67
2022/04/02 12:14:07;;;;;;;9.30;5.68;;;3.10;99.90;;;;;;5033036;28;20040;-68
2022/04/02 12:16:33;;;;;;;7.93;5.15;;;3.00;99.90;;;;;;5051022;28;20040;-67
2022/04/02 12:18:59;;;;;;;7.93;5.10;;;3.00;99.90;;;;;;5054059;28;20357;-67
2022/04/02 12:21:33;;;;;;;6.82;5.28;;;3.00;99.90;;;;;;5045324;28;20435;-67
2022/04/02 12:24:01;;;;;;;8.10;4.63;;;3.10;99.90;;;;;;5038035;28;20060;-66
2022/04/02 12:26:27;;;;;;;7.63;4.40;;;3.10;99.90;;;;;;5030746;28;20370;-69
2022/04/02 12:28:57;;;;;;;8.73;4.18;;;3.20;99.90;;;;;;5035624;28;20111;-67
2022/04/02 12:31:27;;;;;;;7.22;4.10;;;3.20;99.90;;;;;;5035988;28;20521;-66
2022/04/02 12:33:54;;;;;;;8.30;5.00;;;3.20;99.90;;;;;;5036099;28;20107;-66
2022/04/02 12:36:59;;;;;;;9.50;5.93;;;3.10;99.90;;;;;;5038343;28;20086;-68
2022/04/02 12:39:25;;;;;;;7.70;5.13;;;3.10;99.90;;;;;;5025437;28;20036;-67
2022/04/02 12:41:51;;;;;;;8.85;4.88;;;2.90;99.90;;;;;;5043021;28;20026;-65
2022/04/02 12:44:21;;;;;;;8.15;4.85;;;2.80;99.90;;;;;;5036932;28;20013;-67
2022/04/02 12:46:47;;;;;;;6.93;4.78;;;2.80;99.90;;;;;;5043712;28;20041;-66
2022/04/02 12:49:33;;;;;;;6.95;4.47;;;2.80;99.90;;;;;;5033253;28;20157;-67
2022/04/02 12:52:13;;;;;;;7.95;4.85;;;2.80;99.90;;;;;;5036441;28;20059;-65
2022/04/02 12:54:43;;;;;;;7.97;4.80;;;3.00;99.90;;;;;;5037985;28;20107;-66
2022/04/02 12:57:15;;;;;;;10.25;4.72;;;3.00;99.90;;;;;;5043674;28;20028;-68
2022/04/02 12:59:43;;;;;;;11.55;4.82;;;3.00;99.90;;;;;;5049484;28;20588;-68
2022/04/02 13:02:16;;;;;;;9.45;4.85;;;3.00;99.90;;;;;;5036167;28;20029;-68
2022/04/02 13:04:50;;;;;;;5.93;4.63;;;3.10;99.90;;;;;;5055180;28;20481;-67
2022/04/02 13:07:21;;;;;;;9.20;5.05;;;3.10;99.90;;;;;;5049635;28;20127;-67
2022/04/02 13:09:49;;;;;;;6.82;4.47;;;3.20;99.90;;;;;;5037988;28;20528;-67
2022/04/02 13:12:23;;;;;;;12.35;5.40;;;3.30;99.90;;;;;;5036289;28;20044;-68